Ayers Rock, Northern Territory

8:15 PM ACST on February 12, 2016 (GMT +0930)
Ayers Rock (Connellan) | | Change Station
CLOSE
Current Station
Airport
Location: Ayers Rock,
Elevation: 1627 ft
Nearby Weather Stations

Elev 1627 ft 25.19 °S, 130.98 °E | Updated 45 minutes ago

Clear
Clear
100 °F
Feels Like 100 °F
N
7
Wind Variable Wind from SE

Today
High -- | Low -- °F
--% Chance of Precip.
Yesterday
High -- | Low -- °F
Precip. -- in
Pressure 29.86 in
Visibility 6.2 miles
Clouds
Dew Point 32 °F
Humidity 9%
Rainfall 0.00 in
Snow Depth Not available.
6:29 AM 7:30 PM
Waxing Crescent, 19% visible
METAR YAYE 121000Z AUTO 14006KT 9999 // NCD 38/M00 Q1011
Pressure 29.86 in
Visibility 6.2 miles
Clouds
Dew Point 32 °F
Humidity 9%
Rainfall 0.00 in
Snow Depth Not available.
6:29 AM 7:30 PM
Waxing Crescent, 19% visible
METAR YAYE 121000Z AUTO 14006KT 9999 // NCD 38/M00 Q1011

10-Day Weather Forecast

No radar image for this location.
×

Almanac

Astronomy

Feb. 12, 2016 Rise Set
Actual Time
Civil Twilight
Nautical Twilight
Astronomical Twilight
Moon
Length of Visible Light
Length of Day
Tomorrow will be .
, % of the Moon is Illuminated

Today's Extremes

Country Highs Country Lows

Community

WunderPhotos

Upload Photos

1,892,289 photos uploaded!

WunderBlog® & News

Nearby

Air Quality

  Air Quality AQ Index Pollutant
Not available.

Snow Depth

Station Depth Elevation

Earthquake Activity

City Distance Mag. Time & Date
Minimum magnitude displayed is 2.5.

Coastal Water Temperatures

Place Temperature

Stations

Nearby Weather Stations

Station Location Temp. Windchill Dew Point Humidity Wind Precip. Elev Updated Type